Time;durP1;ratioP1;P1;durP2;ratioP2;P2;SDS_P1;SDS_P2;PMS_P1;PMS_P2;Temp;Humidity;BMP_temperature;BMP_pressure;BME280_temperature;BME280_humidity;BME280_pressure;Samples;Min_cycle;Max_cycle;Signal;HPM_P1;HPM_P2
2021/11/10 00:02:04;;;;;;;979.13;913.22;;;;;;;19.03;54.49;102013.19;5055032;28;20032;-41
2021/11/10 00:04:30;;;;;;;986.55;920.90;;;;;;;19.04;54.49;102008.69;5054851;28;20397;-41
2021/11/10 00:06:56;;;;;;;964.20;898.70;;;;;;;19.06;54.24;102012.97;5054976;28;20025;-41
2021/11/10 00:09:22;;;;;;;998.22;931.60;;;;;;;19.03;54.35;102012.31;5054749;28;20086;-41
2021/11/10 00:11:48;;;;;;;970.63;905.65;;;;;;;19.05;54.30;102024.56;5054895;28;20028;-41
2021/11/10 00:14:14;;;;;;;999.70;932.63;;;;;;;19.05;54.27;102013.91;5055145;28;20036;-41
2021/11/10 00:16:41;;;;;;;972.65;907.28;;;;;;;19.04;54.32;102014.88;5054863;28;20029;-41
2021/11/10 00:19:07;;;;;;;975.53;910.35;;;;;;;19.06;54.30;102009.44;5054411;28;20472;-41
2021/11/10 00:21:33;;;;;;;985.45;920.25;;;;;;;19.05;54.42;102010.41;5053867;28;20036;-41
2021/11/10 00:23:59;;;;;;;957.17;893.42;;;;;;;19.05;54.74;102011.25;5054754;28;20032;-41
2021/11/10 00:26:25;;;;;;;967.15;902.80;;;;;;;19.00;54.57;101998.28;5054965;28;20021;-41
2021/11/10 00:28:52;;;;;;;980.45;915.38;;;;;;;19.08;54.35;102026.13;5054411;28;20048;-41
2021/11/10 00:31:18;;;;;;;951.38;887.70;;;;;;;19.07;54.50;102032.44;5053894;28;20047;-41
2021/11/10 00:33:44;;;;;;;967.63;901.92;;;;;;;19.06;54.53;102041.38;5054640;28;20055;-41
2021/11/10 00:36:11;;;;;;;973.65;908.65;;;;;;;19.06;54.45;102050.25;5054536;28;20029;-41
2021/11/10 00:38:37;;;;;;;951.40;888.30;;;;;;;19.05;54.62;102053.00;5053986;28;20020;-41
2021/11/10 00:41:04;;;;;;;958.45;894.78;;;;;;;19.06;54.71;102055.56;5053332;28;20032;-41
2021/11/10 00:43:31;;;;;;;956.85;892.05;;;;;;;19.05;54.67;102069.84;5054555;28;20025;-42
2021/11/10 00:45:57;;;;;;;980.17;914.63;;;;;;;19.05;54.51;102074.31;5053647;28;20039;-42
2021/11/10 00:48:24;;;;;;;995.83;929.58;;;;;;;19.06;54.67;102073.31;5054424;28;20025;-41
2021/11/10 00:50:50;;;;;;;973.85;908.75;;;;;;;19.04;54.69;102073.44;5054084;28;20033;-41
2021/11/10 00:53:16;;;;;;;969.20;903.20;;;;;;;19.07;54.72;102081.22;5054338;28;20454;-41
2021/11/10 00:55:42;;;;;;;970.50;905.38;;;;;;;19.07;54.51;102083.03;5054411;28;20041;-41
2021/11/10 00:58:09;;;;;;;976.30;910.53;;;;;;;19.09;54.53;102081.09;5054336;28;20021;-41
2021/11/10 01:00:35;;;;;;;994.28;926.95;;;;;;;19.07;54.87;102091.03;5054123;28;20361;-41
2021/11/10 01:03:02;;;;;;;972.78;907.92;;;;;;;19.05;54.88;102096.44;5054172;28;20090;-40
2021/11/10 01:05:28;;;;;;;966.20;901.10;;;;;;;19.06;54.82;102097.28;5054133;28;20478;-41
2021/11/10 01:07:57;;;;;;;965.85;900.60;;;;;;;19.02;54.73;102088.69;5054284;28;20040;-40
2021/11/10 01:10:26;;;;;;;947.30;884.20;;;;;;;19.05;54.89;102104.44;5054077;28;20025;-41
2021/11/10 01:12:52;;;;;;;946.67;883.35;;;;;;;19.05;54.83;102106.25;5053119;28;20021;-41
2021/11/10 01:15:19;;;;;;;972.17;906.75;;;;;;;19.03;54.68;102113.50;5054205;28;20025;-40
2021/11/10 01:17:45;;;;;;;966.50;901.38;;;;;;;19.05;54.71;102114.25;5054084;28;20366;-41
2021/11/10 01:20:12;;;;;;;970.03;904.08;;;;;;;19.06;54.39;102110.59;5053864;28;20163;-41
2021/11/10 01:22:38;;;;;;;966.38;901.33;;;;;;;19.06;54.99;102110.59;5054068;28;20102;-41
2021/11/10 01:25:05;;;;;;;984.70;918.08;;;;;;;19.07;54.95;102112.31;5064130;28;20033;-41
2021/11/10 01:27:31;;;;;;;982.55;915.83;;;;;;;19.08;54.87;102111.34;5034130;28;20043;-40
2021/11/10 01:29:58;;;;;;;994.03;925.75;;;;;;;19.06;55.14;102118.59;5034177;28;20356;-41
2021/11/10 01:32:24;;;;;;;971.35;905.75;;;;;;;19.06;55.06;102122.13;5034074;28;20037;-41
2021/11/10 01:34:50;;;;;;;976.58;911.17;;;;;;;19.05;55.01;102123.06;5033915;28;20060;-42
2021/11/10 01:37:16;;;;;;;978.08;911.47;;;;;;;19.04;54.71;102115.19;5034156;28;20068;-41
2021/11/10 01:39:42;;;;;;;967.05;901.38;;;;;;;19.03;54.64;102126.81;5049545;28;20040;-41
2021/11/10 01:42:09;;;;;;;957.60;893.33;;;;;;;19.03;55.00;102126.81;5046977;28;20036;-41
2021/11/10 01:44:37;;;;;;;988.60;922.58;;;;;;;19.01;54.90;102124.28;5053930;28;20044;-41
2021/11/10 01:47:11;;;;;;;981.20;914.30;;;;;;;19.00;54.89;102122.56;5053855;28;20021;-41
2021/11/10 01:49:39;;;;;;;985.17;918.88;;;;;;;19.07;54.88;102136.28;5053706;28;20036;-41
2021/11/10 01:52:05;;;;;;;977.60;912.90;;;;;;;19.08;54.57;102129.97;5057253;28;20061;-41
2021/11/10 01:54:33;;;;;;;971.58;906.55;;;;;;;19.05;54.68;102125.75;5057585;28;20108;-40
2021/11/10 01:56:59;;;;;;;964.33;899.85;;;;;;;18.95;55.01;102103.41;5057458;28;20028;-41
2021/11/10 01:59:43;;;;;;;988.65;922.50;;;;;;;19.06;55.05;102132.78;5056599;28;20413;-41
2021/11/10 02:02:11;;;;;;;967.17;902.33;;;;;;;18.97;55.19;102122.78;5057231;28;20105;-41
2021/11/10 02:04:38;;;;;;;954.75;891.13;;;;;;;19.01;55.27;102129.59;5056346;28;20108;-41
2021/11/10 02:07:05;;;;;;;968.95;903.75;;;;;;;19.02;55.03;102138.44;5057333;28;20052;-41
2021/11/10 02:09:32;;;;;;;988.88;921.45;;;;;;;19.01;55.31;102137.59;5056448;28;20032;-40
2021/11/10 02:11:58;;;;;;;963.75;899.17;;;;;;;18.99;55.34;102151.00;5056204;28;20020;-41
2021/11/10 02:14:25;;;;;;;972.47;906.60;;;;;;;18.99;55.26;102159.00;5057440;28;20025;-42
2021/11/10 02:16:52;;;;;;;971.40;906.35;;;;;;;19.01;55.27;102150.91;5057047;28;20032;-41
2021/11/10 02:19:19;;;;;;;977.83;912.28;;;;;;;19.02;54.75;102154.41;5057035;28;20369;-41
2021/11/10 02:21:47;;;;;;;999.58;932.15;;;;;;;19.06;54.79;102161.19;5055767;28;20036;-41
2021/11/10 02:24:14;;;;;;;977.55;910.90;;;;;;;19.08;54.87;102175.25;5056858;28;20052;-40
2021/11/10 02:26:42;;;;;;;994.72;928.40;;;;;;;18.71;55.20;102127.31;5056841;28;20457;-41
2021/11/10 02:29:15;;;;;;;986.63;919.90;;;;;;;19.02;55.02;102181.88;5056797;28;20029;-41
2021/11/10 02:31:41;;;;;;;972.65;906.35;;;;;;;19.00;55.54;102181.97;5056659;28;20395;-41
2021/11/10 02:34:08;;;;;;;958.80;894.53;;;;;;;18.99;55.25;102182.94;5055885;28;20025;-41
2021/11/10 02:36:34;;;;;;;992.40;925.88;;;;;;;18.98;55.56;102170.59;5056668;28;20020;-40
2021/11/10 02:39:01;;;;;;;978.92;912.78;;;;;;;18.98;55.60;102165.25;5056645;28;20036;-41
2021/11/10 02:41:29;;;;;;;991.25;923.90;;;;;;;18.95;55.38;102157.50;5055522;28;20351;-41
2021/11/10 02:43:55;;;;;;;996.00;928.25;;;;;;;18.99;55.37;102182.94;5055797;28;20021;-42
2021/11/10 02:46:23;;;;;;;984.47;918.90;;;;;;;19.03;55.14;102186.25;5056627;28;20017;-41
2021/11/10 02:48:49;;;;;;;978.55;911.92;;;;;;;19.07;54.64;102181.53;5056562;28;20111;-41
2021/11/10 02:51:15;;;;;;;974.75;909.20;;;;;;;19.06;54.80;102183.38;5055264;28;20048;-41
2021/11/10 02:53:41;;;;;;;973.22;908.08;;;;;;;19.05;55.14;102175.50;5056440;28;20025;-41
2021/11/10 02:56:08;;;;;;;981.92;916.13;;;;;;;19.05;55.48;102183.47;5056488;28;20024;-41
2021/11/10 02:58:35;;;;;;;987.10;919.92;;;;;;;19.00;55.37;102187.31;5055735;28;20336;-41
2021/11/10 03:01:03;;;;;;;971.13;905.72;;;;;;;18.96;55.62;102179.66;5056009;28;20203;-41
2021/11/10 03:03:29;;;;;;;982.47;917.13;;;;;;;18.98;55.35;102196.38;5055571;28;20017;-41
2021/11/10 03:05:55;;;;;;;989.55;922.05;;;;;;;18.95;55.69;102192.09;5056132;28;20054;-41
2021/11/10 03:08:22;;;;;;;963.80;899.40;;;;;;;18.96;55.67;102196.47;5056249;28;20021;-41
2021/11/10 03:10:48;;;;;;;987.33;920.10;;;;;;;18.95;55.69;102189.44;5056055;28;20044;-41
2021/11/10 03:13:15;;;;;;;978.47;912.38;;;;;;;18.99;55.29;102182.09;5056157;28;20111;-41
2021/11/10 03:15:42;;;;;;;979.85;914.03;;;;;;;19.01;55.09;102180.19;5055220;28;20509;-41
2021/11/10 03:18:09;;;;;;;984.95;918.20;;;;;;;18.98;55.12;102167.94;5055878;28;20037;-41
2021/11/10 03:20:35;;;;;;;978.22;912.10;;;;;;;19.06;54.93;102182.50;5038528;28;20028;-42
2021/11/10 03:23:02;;;;;;;994.25;926.47;;;;;;;19.03;55.23;102182.72;5055531;28;20378;-41
2021/11/10 03:25:28;;;;;;;989.25;922.95;;;;;;;18.98;55.26;102175.91;5055929;28;20016;-41
2021/11/10 03:27:54;;;;;;;983.15;916.72;;;;;;;19.00;55.52;102189.97;5055795;28;20104;-41
2021/11/10 03:30:21;;;;;;;968.70;903.95;;;;;;;18.98;55.52;102186.56;5055864;28;20094;-41
2021/11/10 03:32:47;;;;;;;966.50;900.97;;;;;;;18.99;55.70;102195.38;5055470;28;20469;-41
2021/11/10 03:35:13;;;;;;;954.58;891.20;;;;;;;18.97;55.50;102190.22;5055518;28;20029;-40
2021/11/10 03:37:41;;;;;;;969.97;904.25;;;;;;;18.94;55.50;102187.75;5055724;28;20044;-40
2021/11/10 03:40:08;;;;;;;984.00;917.65;;;;;;;18.94;55.27;102185.09;5054598;28;20056;-41
2021/11/10 03:42:34;;;;;;;1015.50;947.40;;;;;;;18.95;55.42;102186.78;5055126;28;20017;-41
2021/11/10 03:45:00;;;;;;;974.50;908.10;;;;;;;19.00;55.35;102192.63;5055424;28;20037;-41
2021/11/10 03:47:27;;;;;;;972.40;906.28;;;;;;;19.02;54.87;102197.84;5055432;28;20021;-41
2021/11/10 03:49:53;;;;;;;982.70;916.63;;;;;;;19.04;55.29;102206.56;5055349;28;20063;-41
2021/11/10 03:52:19;;;;;;;987.30;920.55;;;;;;;19.04;55.37;102219.03;5055254;28;20455;-41
2021/11/10 03:54:45;;;;;;;1016.25;946.85;;;;;;;19.02;55.34;102228.94;5054258;28;20029;-41
2021/11/10 03:57:12;;;;;;;977.90;911.25;;;;;;;19.00;55.51;102221.06;5055335;28;20454;-41
2021/11/10 03:59:38;;;;;;;971.97;906.50;;;;;;;18.95;55.52;102218.72;5055326;28;20036;-41
2021/11/10 04:02:08;;;;;;;981.53;915.72;;;;;;;18.94;55.36;102227.69;5054915;28;20116;-41
2021/11/10 04:04:35;;;;;;;994.22;927.00;;;;;;;18.94;55.37;102225.03;5054851;28;20021;-41
2021/11/10 04:07:01;;;;;;;995.55;927.88;;;;;;;18.91;55.44;102230.56;5055031;28;20056;-41
2021/11/10 04:09:27;;;;;;;977.95;911.35;;;;;;;18.92;55.36;102232.28;5055179;28;20328;-41
2021/11/10 04:11:54;;;;;;;985.53;919.22;;;;;;;18.90;55.35;102241.31;5055134;28;20102;-41
2021/11/10 04:14:20;;;;;;;979.03;912.92;;;;;;;18.98;55.30;102244.28;5053155;28;20025;-41
2021/11/10 04:16:46;;;;;;;980.72;915.50;;;;;;;19.00;55.13;102235.22;5054931;28;20043;-41
2021/11/10 04:19:12;;;;;;;964.10;899.55;;;;;;;19.00;55.05;102243.22;5055050;28;20458;-41
2021/11/10 04:21:38;;;;;;;980.72;915.05;;;;;;;19.00;55.12;102231.72;5054774;28;20438;-40
2021/11/10 04:24:05;;;;;;;988.15;922.55;;;;;;;18.96;55.60;102236.41;5054600;28;20029;-41
2021/11/10 04:26:39;;;;;;;984.05;917.47;;;;;;;18.93;55.59;102238.44;5070674;28;20024;-41
2021/11/10 04:29:05;;;;;;;970.70;905.60;;;;;;;18.94;55.36;102245.47;5054750;28;20029;-41
2021/11/10 04:31:32;;;;;;;1011.33;941.22;;;;;;;18.91;55.47;102241.22;5054785;28;20043;-41
2021/11/10 04:33:58;;;;;;;993.05;925.72;;;;;;;18.91;55.25;102246.53;5054465;28;20021;-41
2021/11/10 04:36:27;;;;;;;978.42;912.05;;;;;;;18.91;55.50;102240.38;5054606;28;20024;-41
2021/11/10 04:38:54;;;;;;;995.08;928.42;;;;;;;18.90;55.71;102239.53;5054506;28;20031;-41
2021/11/10 04:41:20;;;;;;;977.13;911.85;;;;;;;18.94;55.48;102243.66;5054651;28;20112;-41
2021/11/10 04:43:46;;;;;;;969.92;905.28;;;;;;;18.96;55.08;102244.41;5054464;28;20033;-40
2021/11/10 04:46:35;;;;;;;957.08;893.50;;;;;;;18.99;55.11;102244.19;5054573;28;20024;-41
2021/11/10 04:49:00;;;;;;;963.15;899.50;;;;;;;18.99;55.24;102254.84;5054146;28;20045;-41
2021/11/10 04:51:26;;;;;;;982.17;916.45;;;;;;;18.97;55.46;102258.56;5054538;28;20028;-41
2021/11/10 04:53:53;;;;;;;996.58;928.80;;;;;;;18.97;55.47;102254.09;5054251;28;20031;-41
2021/11/10 04:56:22;;;;;;;985.08;918.72;;;;;;;18.93;55.60;102251.75;5053614;28;20033;-41
2021/11/10 04:58:48;;;;;;;1001.17;933.55;;;;;;;18.92;55.38;102258.03;5054335;28;20059;-41
2021/11/10 05:01:34;;;;;;;994.30;926.65;;;;;;;18.91;55.52;102265.16;5054641;28;20025;-41
2021/11/10 05:04:00;;;;;;;967.95;903.35;;;;;;;18.90;55.65;102268.81;5054182;28;20021;-41
2021/11/10 05:06:26;;;;;;;988.22;921.03;;;;;;;18.90;55.53;102268.81;5054178;28;20025;-41
2021/11/10 05:08:53;;;;;;;970.72;904.55;;;;;;;18.72;55.46;102246.09;5054261;28;20025;-41
2021/11/10 05:11:19;;;;;;;967.42;902.63;;;;;;;18.94;55.62;102280.94;5053461;28;20031;-41
2021/11/10 05:13:45;;;;;;;967.97;903.25;;;;;;;18.95;55.16;102285.28;5053110;28;20029;-41
2021/11/10 05:16:11;;;;;;;990.05;923.55;;;;;;;18.98;54.84;102293.06;5054270;28;20025;-41
2021/11/10 05:18:37;;;;;;;968.10;903.17;;;;;;;18.98;55.28;102285.06;5054247;28;20396;-41
2021/11/10 05:21:04;;;;;;;984.55;916.35;;;;;;;18.94;55.65;102291.56;5054276;28;20098;-41
2021/11/10 05:23:30;;;;;;;975.28;909.75;;;;;;;18.93;55.71;102299.66;5054084;28;20107;-41
2021/11/10 05:25:56;;;;;;;979.58;913.42;;;;;;;18.91;55.71;102307.75;5055854;28;20036;-41
2021/11/10 05:28:22;;;;;;;991.08;924.35;;;;;;;18.90;55.77;102303.41;5058007;28;20028;-41
2021/11/10 05:30:49;;;;;;;997.45;929.83;;;;;;;18.89;55.73;102307.03;5058005;28;20366;-41
2021/11/10 05:33:15;;;;;;;992.97;926.03;;;;;;;18.90;55.37;102308.72;5057898;28;20029;-41
2021/11/10 05:35:41;;;;;;;993.33;925.35;;;;;;;18.90;55.53;102306.06;5057824;28;20059;-41
2021/11/10 05:38:08;;;;;;;987.70;920.60;;;;;;;18.89;55.46;102309.69;5057919;28;20029;-41
2021/11/10 05:40:36;;;;;;;1008.20;939.80;;;;;;;18.91;55.64;102310.41;5057673;28;20358;-41
2021/11/10 05:43:03;;;;;;;975.92;910.65;;;;;;;18.94;55.32;102307.56;5057590;28;20071;-41
2021/11/10 05:45:29;;;;;;;980.65;913.97;;;;;;;18.97;55.44;102303.81;5057521;28;20025;-41
2021/11/10 05:47:55;;;;;;;966.15;900.72;;;;;;;18.99;55.50;102296.56;5056878;28;20028;-41
2021/11/10 05:50:21;;;;;;;986.15;920.22;;;;;;;18.95;55.57;102297.75;5057596;28;20067;-41
2021/11/10 05:52:48;;;;;;;984.60;917.63;;;;;;;18.92;55.63;102298.81;5057535;28;20343;-41
2021/11/10 05:55:15;;;;;;;1011.65;942.00;;;;;;;18.90;55.77;102291.88;5057311;28;20045;-41
2021/11/10 05:57:42;;;;;;;979.35;913.28;;;;;;;18.90;55.56;102291.88;5054789;28;20358;-41
2021/11/10 06:00:10;;;;;;;989.03;921.75;;;;;;;18.88;55.54;102294.66;5037516;28;20052;-41
2021/11/10 06:02:36;;;;;;;994.75;927.28;;;;;;;18.87;55.53;102289.47;5037703;28;20028;-41
2021/11/10 06:05:03;;;;;;;1010.47;942.10;;;;;;;18.87;55.56;102282.31;5037053;28;20025;-41
2021/11/10 06:07:29;;;;;;;989.60;922.65;;;;;;;18.87;55.43;102268.16;5037717;28;20556;-41
2021/11/10 06:09:55;;;;;;;970.25;904.92;;;;;;;18.90;55.89;102279.47;5037405;28;20029;-41
2021/11/10 06:12:21;;;;;;;987.13;920.95;;;;;;;18.92;55.66;102280.19;5037329;28;20025;-41
2021/11/10 06:14:47;;;;;;;979.53;913.28;;;;;;;18.95;55.50;102279.09;5037405;28;20040;-41
2021/11/10 06:17:13;;;;;;;981.47;915.20;;;;;;;18.95;55.54;102277.28;5037163;28;20029;-41
2021/11/10 06:19:40;;;;;;;999.28;931.33;;;;;;;18.92;55.48;102276.66;5037118;28;20022;-41
2021/11/10 06:22:06;;;;;;;982.70;916.45;;;;;;;18.90;55.55;102278.59;5037121;28;20052;-41
2021/11/10 06:24:32;;;;;;;988.38;921.15;;;;;;;18.87;56.04;102274.34;5036895;28;20450;-41
2021/11/10 06:26:58;;;;;;;1016.17;946.58;;;;;;;18.82;55.68;102260.50;5037006;28;20155;-41
2021/11/10 06:29:24;;;;;;;1000.30;931.75;;;;;;;18.86;55.92;102261.13;5036883;28;20459;-41
2021/11/10 06:31:51;;;;;;;1006.53;938.60;;;;;;;18.88;55.83;102269.84;5037069;28;20112;-41
2021/11/10 06:34:17;;;;;;;965.53;900.78;;;;;;;18.87;55.61;102270.84;5036778;28;20049;-41
2021/11/10 06:36:43;;;;;;;934.75;872.80;;;;;;;18.82;55.78;102254.34;5036085;28;20025;-41
2021/11/10 06:39:09;;;;;;;976.90;910.97;;;;;;;18.89;55.55;102261.75;5036641;28;20367;-41
2021/11/10 06:41:36;;;;;;;960.60;896.30;;;;;;;18.92;55.46;102263.34;5036741;28;20032;-41
2021/11/10 06:44:02;;;;;;;989.60;923.80;;;;;;;18.94;55.28;102275.59;5036758;28;20359;-41
2021/11/10 06:46:28;;;;;;;981.03;915.35;;;;;;;18.95;55.54;102279.94;5036533;28;20060;-41
2021/11/10 06:48:55;;;;;;;975.58;909.53;;;;;;;18.93;55.39;102278.38;5036830;28;20076;-41
2021/11/10 06:51:21;;;;;;;979.50;914.00;;;;;;;18.88;55.92;102276.03;5036504;28;20021;-41
2021/11/10 06:53:47;;;;;;;962.70;897.92;;;;;;;18.87;55.84;102279.66;5036648;28;20021;-41
2021/11/10 06:56:13;;;;;;;999.97;931.28;;;;;;;18.87;55.92;102281.47;5036367;28;20029;-41
2021/11/10 06:58:40;;;;;;;993.83;927.72;;;;;;;18.85;55.52;102288.69;5036457;28;20064;-41
2021/11/10 07:01:06;;;;;;;1012.38;943.63;;;;;;;18.85;55.44;102292.22;5036304;28;20447;-41
2021/11/10 07:03:32;;;;;;;978.92;913.80;;;;;;;18.84;55.70;102300.31;5036497;28;20166;-41
2021/11/10 07:05:59;;;;;;;975.83;910.58;;;;;;;18.85;55.84;102304.66;5036107;28;20044;-40
2021/11/10 07:08:25;;;;;;;985.15;917.78;;;;;;;18.87;55.69;102303.63;5036336;28;20068;-41
2021/11/10 07:10:51;;;;;;;952.25;889.33;;;;;;;18.89;55.77;102307.03;5036166;28;20040;-41
2021/11/10 07:13:17;;;;;;;998.30;931.50;;;;;;;18.88;55.53;102307.97;5036345;28;20096;-41
2021/11/10 07:15:43;;;;;;;976.17;911.45;;;;;;;18.92;55.50;102321.91;5036134;28;20431;-41
2021/11/10 07:18:09;;;;;;;976.08;910.90;;;;;;;18.86;55.34;102322.34;5036003;28;20056;-41
2021/11/10 07:20:36;;;;;;;994.50;927.65;;;;;;;18.87;55.77;102334.72;5035986;28;20025;-41
2021/11/10 07:23:02;;;;;;;977.78;912.63;;;;;;;18.75;55.86;102317.75;5035856;28;20026;-41
2021/11/10 07:25:29;;;;;;;987.35;921.65;;;;;;;18.83;55.50;102336.72;5036023;28;20063;-41
2021/11/10 07:27:55;;;;;;;977.83;912.60;;;;;;;18.82;55.65;102337.69;5035085;28;20076;-41
2021/11/10 07:30:21;;;;;;;984.20;919.15;;;;;;;18.83;55.63;102341.19;5035847;28;20112;-41
2021/11/10 07:32:47;;;;;;;980.58;914.80;;;;;;;18.82;55.76;102335.03;5035777;28;20021;-41
2021/11/10 07:35:14;;;;;;;991.88;923.90;;;;;;;18.80;55.42;102335.09;5035649;28;20037;-41
2021/11/10 07:37:41;;;;;;;981.45;915.15;;;;;;;18.75;55.55;102318.59;5035608;28;20018;-41
2021/11/10 07:40:08;;;;;;;979.40;913.60;;;;;;;18.86;55.35;102330.34;5051287;28;20048;-41
2021/11/10 07:42:36;;;;;;;952.47;890.22;;;;;;;18.88;55.48;102333.75;5051993;28;20083;-41
2021/11/10 07:47:45;;;;;;;956.50;892.80;;;;;;;18.88;55.33;102333.75;5055389;28;20359;-41
2021/11/10 07:50:17;;;;;;;998.60;931.42;;;;;;;18.80;55.51;102343.09;5055311;28;20108;-41
2021/11/10 07:52:43;;;;;;;981.70;917.03;;;;;;;18.81;55.83;102330.63;5054320;28;20021;-41
2021/11/10 07:55:09;;;;;;;976.42;911.58;;;;;;;18.79;55.69;102340.53;5055366;28;20043;-41
2021/11/10 07:57:36;;;;;;;966.95;901.85;;;;;;;18.74;55.38;102332.88;5055198;28;20021;-41
2021/11/10 08:00:09;;;;;;;981.35;915.50;;;;;;;18.73;55.68;102335.63;5071023;28;20450;-41
2021/11/10 08:02:35;;;;;;;990.17;924.30;;;;;;;18.79;55.64;102343.19;5054277;28;20502;-41
2021/11/10 08:05:01;;;;;;;947.13;883.78;;;;;;;18.78;55.47;102336.19;5054911;28;20035;-41
2021/11/10 08:07:28;;;;;;;990.97;923.90;;;;;;;18.80;55.48;102339.56;5054932;28;20067;-40
2021/11/10 08:09:54;;;;;;;980.15;915.45;;;;;;;18.84;55.22;102346.41;5055001;28;20450;-41
2021/11/10 08:12:20;;;;;;;973.95;909.05;;;;;;;18.86;55.36;102341.84;5055003;28;20048;-41
2021/11/10 08:14:46;;;;;;;980.30;914.75;;;;;;;18.80;55.18;102331.59;5054787;28;20055;-41
2021/11/10 08:17:12;;;;;;;980.92;914.95;;;;;;;18.83;55.37;102338.53;5054915;28;20366;-41
2021/11/10 08:19:38;;;;;;;975.60;910.88;;;;;;;18.78;55.46;102341.50;5054977;28;20328;-41
2021/11/10 08:22:05;;;;;;;1007.17;940.40;;;;;;;18.78;55.64;102337.00;5054716;28;20036;-41
2021/11/10 08:24:32;;;;;;;978.40;913.17;;;;;;;18.78;55.58;102344.16;5055601;28;20033;-41
2021/11/10 08:26:58;;;;;;;988.33;922.67;;;;;;;18.76;55.44;102338.94;5055269;28;20032;-41
2021/11/10 08:29:25;;;;;;;985.58;919.47;;;;;;;18.78;55.76;102346.81;5055800;28;20029;-41
2021/11/10 08:31:52;;;;;;;1004.28;937.47;;;;;;;18.75;55.64;102357.66;5056876;28;20016;-40
2021/11/10 08:34:18;;;;;;;987.88;921.90;;;;;;;18.76;55.61;102362.88;5056589;28;20060;-41
2021/11/10 08:36:45;;;;;;;975.72;910.72;;;;;;;18.71;55.37;102342.88;5056142;28;20488;-41
2021/11/10 08:39:11;;;;;;;982.28;916.67;;;;;;;18.82;55.34;102347.50;5054869;28;20506;-41
2021/11/10 08:41:37;;;;;;;970.20;905.40;;;;;;;18.85;55.17;102350.78;5055153;28;20041;-41
2021/11/10 08:44:04;;;;;;;960.40;896.40;;;;;;;18.84;55.28;102343.75;5054832;28;20051;-41
2021/11/10 08:46:30;;;;;;;971.45;907.15;;;;;;;18.78;55.71;102337.00;5054530;28;20096;-41
2021/11/10 08:48:56;;;;;;;997.35;929.47;;;;;;;18.77;55.59;102339.78;5054943;28;20031;-41
2021/11/10 08:51:23;;;;;;;980.88;915.13;;;;;;;18.79;55.68;102343.19;5055014;28;20020;-41
2021/11/10 08:53:49;;;;;;;968.20;902.83;;;;;;;18.76;55.60;102330.06;5055140;28;20025;-40
2021/11/10 08:56:16;;;;;;;1014.83;945.90;;;;;;;18.77;55.91;102331.78;5055081;28;20025;-41
2021/11/10 08:58:42;;;;;;;1000.50;932.67;;;;;;;18.76;55.83;102336.28;5055143;28;20524;-41
2021/11/10 09:01:08;;;;;;;985.33;917.97;;;;;;;18.75;55.59;102339.03;5057439;28;20051;-41
2021/11/10 09:03:34;;;;;;;990.47;923.88;;;;;;;18.76;55.50;102336.28;5058892;28;20025;-42
2021/11/10 09:06:01;;;;;;;987.83;921.10;;;;;;;18.77;55.69;102331.78;5058690;28;20032;-40
2021/11/10 09:08:29;;;;;;;971.28;906.53;;;;;;;18.79;55.21;102335.19;5058428;28;20025;-41
2021/11/10 09:10:55;;;;;;;975.95;911.17;;;;;;;18.81;55.03;102338.59;5057412;28;20409;-40
2021/11/10 09:13:22;;;;;;;976.05;911.38;;;;;;;18.82;55.28;102331.53;5058308;28;20025;-41
2021/11/10 09:15:49;;;;;;;1008.17;939.88;;;;;;;18.78;55.70;102326.38;5058293;28;20114;-41
2021/11/10 09:18:15;;;;;;;994.58;927.72;;;;;;;18.77;55.67;102321.16;5057006;28;20032;-41
2021/11/10 09:20:41;;;;;;;977.63;912.00;;;;;;;18.76;55.59;102317.66;5058043;28;20033;-41
2021/11/10 09:23:08;;;;;;;1014.28;945.78;;;;;;;18.74;55.63;102310.72;5058051;28;20108;-40
2021/11/10 09:25:35;;;;;;;988.50;922.58;;;;;;;18.74;55.64;102324.00;5058156;28;20025;-41
2021/11/10 09:28:02;;;;;;;991.25;925.17;;;;;;;18.72;55.54;102316.13;5057895;28;20359;-41
2021/11/10 09:30:29;;;;;;;985.38;919.63;;;;;;;18.71;55.55;102314.44;5058010;28;20104;-41
2021/11/10 09:32:56;;;;;;;987.72;921.65;;;;;;;18.74;55.66;102318.69;5057957;28;20029;-41
2021/11/10 09:35:23;;;;;;;982.47;916.13;;;;;;;18.76;55.56;102316.78;5057873;28;20402;-41
2021/11/10 09:37:50;;;;;;;990.97;924.78;;;;;;;18.78;55.51;102317.53;5057672;28;20110;-41
2021/11/10 09:40:17;;;;;;;971.45;906.72;;;;;;;18.79;55.60;102312.09;5057787;28;20054;-41
2021/11/10 09:42:43;;;;;;;980.63;914.63;;;;;;;18.80;55.46;102319.13;5057545;28;20033;-41
2021/11/10 09:45:13;;;;;;;977.35;911.75;;;;;;;18.75;55.74;102318.59;5058115;28;20063;-41
2021/11/10 09:47:39;;;;;;;979.40;914.03;;;;;;;18.75;55.78;102320.41;5057500;28;20455;-41
2021/11/10 09:50:06;;;;;;;974.78;910.08;;;;;;;18.73;55.65;102315.19;5057600;28;20104;-41
2021/11/10 09:52:32;;;;;;;964.78;899.85;;;;;;;18.74;55.84;102322.22;5057669;28;20107;-41
2021/11/10 09:54:58;;;;;;;996.13;930.42;;;;;;;18.73;55.71;102331.16;5057532;28;20036;-41
2021/11/10 09:57:25;;;;;;;979.00;913.30;;;;;;;18.66;56.01;102313.91;5057521;28;20021;-41
2021/11/10 09:59:51;;;;;;;993.22;926.47;;;;;;;18.66;55.66;102311.25;5057282;28;20055;-40
2021/11/10 10:02:18;;;;;;;979.42;914.10;;;;;;;18.72;55.62;102318.78;5040202;28;20032;-41
2021/11/10 10:04:44;;;;;;;947.38;885.72;;;;;;;18.73;55.86;102320.50;5040110;28;20104;-41
2021/11/10 10:07:11;;;;;;;991.47;925.38;;;;;;;18.77;55.67;102318.50;5056409;28;20024;-41
2021/11/10 10:09:37;;;;;;;970.10;904.83;;;;;;;18.78;55.29;102314.88;5056127;28;20029;-41
2021/11/10 10:12:04;;;;;;;965.28;901.65;;;;;;;18.79;55.54;102313.91;5057242;28;20504;-41
2021/11/10 10:14:32;;;;;;;977.35;911.53;;;;;;;18.75;55.60;102313.25;5057649;28;20111;-41
2021/11/10 10:17:02;;;;;;;983.90;918.63;;;;;;;18.73;55.72;102311.69;5056132;28;20033;-41
2021/11/10 10:19:41;;;;;;;950.17;887.60;;;;;;;18.73;56.07;102319.66;5056998;28;20094;-41
2021/11/10 10:22:07;;;;;;;968.88;904.97;;;;;;;18.70;55.92;102312.72;5057283;28;20017;-40
2021/11/10 10:25:06;;;;;;;969.95;905.75;;;;;;;18.76;55.97;102320.31;5056050;28;20029;-41
2021/11/10 10:27:33;;;;;;;979.85;914.33;;;;;;;18.68;55.88;102327.94;5045258;28;20041;-42
2021/11/10 10:30:31;;;;;;;1003.78;936.10;;;;;;;18.70;55.96;102326.03;5056787;28;20025;-41
2021/11/10 10:33:06;;;;;;;978.03;912.53;;;;;;;18.70;56.08;102319.88;5036747;28;20025;-41
2021/11/10 10:35:56;;;;;;;972.70;909.33;;;;;;;18.76;55.78;102320.31;5036861;28;20473;-41
2021/11/10 10:38:24;;;;;;;937.83;877.05;;;;;;;18.75;55.52;102315.09;5036791;28;20355;-41
2021/11/10 10:40:52;;;;;;;979.53;914.83;;;;;;;18.77;55.36;102306.03;5036791;28;20072;-41
2021/11/10 10:43:25;;;;;;;968.45;903.00;;;;;;;18.72;55.86;102301.97;5037337;28;20337;-41
2021/11/10 10:45:56;;;;;;;988.72;922.53;;;;;;;18.71;55.90;102311.78;5036789;28;20025;-41
2021/11/10 10:48:23;;;;;;;998.00;931.55;;;;;;;18.71;55.75;102313.59;5035979;28;20398;-41
2021/11/10 10:50:55;;;;;;;985.35;919.42;;;;;;;18.69;56.03;102305.72;5036264;28;20183;-42
2021/11/10 10:53:47;;;;;;;999.05;932.08;;;;;;;18.70;56.19;102320.72;5036575;28;20025;-41
2021/11/10 10:56:16;;;;;;;940.58;877.97;;;;;;;18.71;55.98;102316.25;5036776;28;20033;-41
2021/11/10 10:58:42;;;;;;;1001.50;935.20;;;;;;;18.72;55.88;102325.94;5036239;28;20128;-41